Time;durP1;ratioP1;P1;durP2;ratioP2;P2;SDS_P1;SDS_P2;PMS_P1;PMS_P2;Temp;Humidity;BMP_temperature;BMP_pressure;BME280_temperature;BME280_humidity;BME280_pressure;Samples;Min_cycle;Max_cycle;Signal;HPM_P1;HPM_P2
2022/05/03 00:02:12;;;;;;;6.60;3.50;;;11.20;89.30;;;;;;5089786;28;20074;-48
2022/05/03 00:04:56;;;;;;;;;;;11.10;90.30;;;;;;5090719;28;20121;-46
2022/05/03 00:07:34;;;;;;;5.35;3.67;;;11.00;89.00;;;;;;5090166;28;19915;-47
2022/05/03 00:10:08;;;;;;;6.88;3.85;;;11.00;90.20;;;;;;5090489;28;20039;-47
2022/05/03 00:12:52;;;;;;;5.63;3.92;;;10.90;90.80;;;;;;5089799;28;20093;-47
2022/05/03 00:15:20;;;;;;;5.72;3.72;;;10.90;90.60;;;;;;5076656;28;20021;-46
2022/05/03 00:17:47;;;;;;;3.67;2.85;;;10.90;91.10;;;;;;5081716;28;20032;-47
2022/05/03 00:20:14;;;;;;;5.95;3.42;;;10.90;91.40;;;;;;5090122;28;20477;-47
2022/05/03 00:22:40;;;;;;;6.85;4.18;;;10.80;91.60;;;;;;5089585;28;20516;-47
2022/05/03 00:25:06;;;;;;;10.15;3.80;;;10.80;92.40;;;;;;5089941;28;20020;-48
2022/05/03 00:27:33;;;;;;;3.70;3.30;;;10.70;92.10;;;;;;5090561;28;20115;-51
2022/05/03 00:29:59;;;;;;;8.55;3.80;;;10.70;92.50;;;;;;5090167;28;20019;-47
2022/05/03 00:32:28;;;;;;;4.75;3.30;;;10.60;91.90;;;;;;5089266;28;20028;-47
2022/05/03 00:34:56;;;;;;;5.57;3.35;;;10.60;92.80;;;;;;5089918;28;20020;-48
2022/05/03 00:37:22;;;;;;;6.00;3.08;;;10.50;91.40;;;;;;5089615;28;20031;-46
2022/05/03 00:39:48;;;;;;;7.43;3.67;;;10.50;91.40;;;;;;5089756;28;20024;-47
2022/05/03 00:42:23;;;;;;;3.97;3.15;;;10.50;92.10;;;;;;5089060;28;20051;-49
2022/05/03 00:45:23;;;;;;;6.05;3.58;;;10.40;90.80;;;;;;5081866;28;20064;-47
2022/05/03 00:47:54;;;;;;;7.75;3.60;;;10.40;91.30;;;;;;5071544;28;20298;-47
2022/05/03 00:50:44;;;;;;;3.63;3.10;;;10.40;91.20;;;;;;5069033;28;20084;-47
2022/05/03 00:53:21;;;;;;;3.53;3.08;;;10.30;92.00;;;;;;5068753;28;20061;-50
2022/05/03 00:56:26;;;;;;;7.88;3.33;;;10.30;92.60;;;;;;5069338;28;20012;-50
2022/05/03 00:59:00;;;;;;;4.45;3.42;;;10.20;92.10;;;;;;5069012;28;20497;-46
2022/05/03 01:01:54;;;;;;;3.50;2.92;;;10.20;92.40;;;;;;5068973;28;20466;-47
2022/05/03 01:04:44;;;;;;;4.80;2.90;;;10.10;92.30;;;;;;5069571;28;20095;-47
2022/05/03 01:07:39;;;;;;;3.55;3.15;;;10.10;91.90;;;;;;5068385;28;20036;-47
2022/05/03 01:10:24;;;;;;;4.57;2.67;;;10.00;91.50;;;;;;5068956;28;20036;-47
2022/05/03 01:13:19;;;;;;;6.95;3.22;;;9.90;91.20;;;;;;5067144;28;20513;-47
2022/05/03 01:15:49;;;;;;;4.93;2.80;;;9.90;92.40;;;;;;5067148;28;20031;-47
2022/05/03 01:18:29;;;;;;;3.60;2.60;;;9.80;91.60;;;;;;5068810;28;20258;-48
2022/05/03 01:21:02;;;;;;;4.40;2.70;;;9.80;92.20;;;;;;5058634;28;20024;-47
2022/05/03 01:24:04;;;;;;;5.20;3.33;;;9.70;92.70;;;;;;5057138;28;20028;-49
2022/05/03 01:26:46;;;;;;;4.03;2.88;;;9.70;92.00;;;;;;5058198;28;20416;-47
2022/05/03 01:29:19;;;;;;;3.97;2.65;;;9.60;91.40;;;;;;5057722;28;20441;-48
2022/05/03 01:31:46;;;;;;;5.05;2.70;;;9.60;91.10;;;;;;5054366;28;20534;-49
2022/05/03 01:34:13;;;;;;;7.43;2.95;;;9.50;91.00;;;;;;5048786;28;20098;-47
2022/05/03 01:37:18;;;;;;;4.63;2.80;;;9.50;91.90;;;;;;5047004;28;20435;-49
2022/05/03 01:40:02;;;;;;;3.13;2.42;;;9.50;91.60;;;;;;5047504;28;20029;-47
2022/05/03 01:42:58;;;;;;;5.10;3.00;;;9.50;91.70;;;;;;5048366;28;20021;-48
2022/05/03 01:45:36;;;;;;;3.42;3.05;;;9.40;92.30;;;;;;5051277;28;20024;-47
2022/05/03 01:51:46;;;;;;;4.93;3.35;;;9.20;94.20;;;;;;5089132;28;20484;-47
2022/05/03 01:54:44;;;;;;;6.85;3.75;;;9.10;94.90;;;;;;5088530;28;20047;-47
2022/05/03 01:57:33;;;;;;;6.10;3.67;;;9.10;95.50;;;;;;5088961;28;20045;-48
2022/05/03 02:00:06;;;;;;;5.13;3.03;;;9.10;95.40;;;;;;5088927;28;20044;-47
2022/05/03 02:02:53;;;;;;;6.57;3.00;;;9.10;95.60;;;;;;5088145;28;20024;-47
2022/05/03 02:05:29;;;;;;;4.97;3.35;;;9.00;96.50;;;;;;5088554;28;20380;-47
2022/05/03 02:07:57;;;;;;;5.20;3.17;;;9.10;96.80;;;;;;5088363;28;20503;-47
2022/05/03 02:10:34;;;;;;;4.28;3.35;;;9.10;96.20;;;;;;5088475;28;20580;-49
2022/05/03 02:13:18;;;;;;;4.50;2.75;;;9.00;96.30;;;;;;5087961;28;20028;-47
2022/05/03 02:15:44;;;;;;;3.88;2.88;;;8.90;95.70;;;;;;5073544;28;20115;-50
2022/05/03 02:18:37;;;;;;;3.33;2.95;;;8.90;95.80;;;;;;5080197;28;20032;-47
2022/05/03 02:21:15;;;;;;;6.38;3.67;;;8.90;96.20;;;;;;5088623;28;20016;-46
2022/05/03 02:24:03;;;;;;;5.40;3.20;;;8.80;95.70;;;;;;5090172;28;20162;-47
2022/05/03 02:27:07;;;;;;;4.20;2.88;;;8.80;96.60;;;;;;5092643;28;20016;-48
2022/05/03 02:29:45;;;;;;;4.00;2.63;;;8.70;96.30;;;;;;5092598;28;20028;-47
2022/05/03 02:32:15;;;;;;;5.40;2.90;;;8.60;96.40;;;;;;5091957;28;20079;-48
2022/05/03 02:34:47;;;;;;;2.70;2.50;;;8.50;96.30;;;;;;5092227;28;20035;-47
2022/05/03 02:37:22;;;;;;;3.33;2.58;;;8.50;97.20;;;;;;5090903;28;20398;-47
2022/05/03 02:40:11;;;;;;;2.83;2.53;;;8.40;96.90;;;;;;5092377;28;20462;-46
2022/05/03 02:42:37;;;;;;;3.72;2.70;;;8.40;97.20;;;;;;5091367;28;20492;-47
2022/05/03 02:45:04;;;;;;;3.47;2.55;;;8.30;97.30;;;;;;5080171;28;20053;-47
2022/05/03 02:47:54;;;;;;;5.47;2.90;;;8.30;97.90;;;;;;5082275;28;20386;-47
2022/05/03 02:50:26;;;;;;;3.55;2.70;;;8.30;99.00;;;;;;5091019;28;20223;-47
2022/05/03 02:53:09;;;;;;;3.25;2.72;;;8.20;98.60;;;;;;5091162;28;20019;-47
2022/05/03 02:55:54;;;;;;;5.18;3.10;;;8.20;98.20;;;;;;5090831;28;20028;-48
2022/05/03 02:58:22;;;;;;;4.10;2.72;;;8.10;98.30;;;;;;5092128;28;20032;-48
2022/05/03 03:04:04;;;;;;;3.88;2.65;;;8.00;98.60;;;;;;5091225;28;20036;-47
2022/05/03 03:06:37;;;;;;;3.55;2.50;;;8.00;98.80;;;;;;5091508;28;20016;-47
2022/05/03 03:09:03;;;;;;;4.72;2.50;;;8.00;98.70;;;;;;5091449;28;20035;-47
2022/05/03 03:11:31;;;;;;;2.58;2.08;;;8.00;98.70;;;;;;5091173;28;20085;-47
2022/05/03 03:14:11;;;;;;;3.25;2.45;;;8.00;99.00;;;;;;5091234;28;20389;-47
2022/05/03 03:16:44;;;;;;;2.97;2.40;;;7.90;98.60;;;;;;5073845;28;20024;-47
2022/05/03 03:19:36;;;;;;;4.40;2.40;;;7.90;99.00;;;;;;5088186;28;20104;-49
2022/05/03 03:22:02;;;;;;;3.03;2.50;;;8.00;98.60;;;;;;5090444;28;20024;-47
2022/05/03 03:24:29;;;;;;;3.67;2.30;;;8.00;99.20;;;;;;5091091;28;20031;-47
2022/05/03 03:26:57;;;;;;;3.78;2.40;;;8.00;98.90;;;;;;5091447;28;20031;-47
2022/05/03 03:29:25;;;;;;;2.72;2.17;;;7.90;98.20;;;;;;5091318;28;20101;-49
2022/05/03 03:31:52;;;;;;;2.83;2.10;;;8.00;98.30;;;;;;5090485;28;20479;-47
2022/05/03 03:34:20;;;;;;;4.55;2.17;;;8.00;98.50;;;;;;5088702;28;20035;-47
2022/05/03 03:36:49;;;;;;;4.88;2.30;;;8.00;98.50;;;;;;5090531;28;20043;-46
2022/05/03 03:39:14;;;;;;;3.05;2.38;;;8.00;98.10;;;;;;5090966;28;20024;-47
2022/05/03 03:41:41;;;;;;;5.15;2.22;;;8.00;98.40;;;;;;5090270;28;20104;-48
2022/05/03 03:44:06;;;;;;;3.28;1.95;;;8.00;98.20;;;;;;5091461;28;20024;-47
2022/05/03 03:46:33;;;;;;;2.90;1.90;;;8.00;98.50;;;;;;5074178;28;20478;-47
2022/05/03 03:48:58;;;;;;;4.93;2.40;;;8.00;98.30;;;;;;5084774;28;20036;-47
2022/05/03 03:51:24;;;;;;;2.60;2.40;;;8.00;98.20;;;;;;5090765;28;20081;-48
2022/05/03 03:53:51;;;;;;;4.72;2.00;;;8.00;98.20;;;;;;5090354;28;20032;-46
2022/05/03 03:56:17;;;;;;;3.05;2.05;;;7.90;98.20;;;;;;5091160;28;20020;-47
2022/05/03 03:58:42;;;;;;;5.25;1.98;;;8.00;98.30;;;;;;5090930;28;20031;-46
2022/05/03 04:01:09;;;;;;;2.67;1.80;;;8.00;97.90;;;;;;5089981;28;20381;-47
2022/05/03 04:03:37;;;;;;;4.63;2.22;;;8.00;98.00;;;;;;5050776;28;20018;-48
2022/05/03 04:06:03;;;;;;;2.47;2.03;;;8.00;98.50;;;;;;5049979;28;20053;-47
2022/05/03 04:08:29;;;;;;;2.90;1.80;;;8.00;98.10;;;;;;5055430;28;20060;-47
2022/05/03 04:10:54;;;;;;;2.85;2.13;;;8.00;98.30;;;;;;5054106;28;20053;-47
2022/05/03 04:13:20;;;;;;;8.35;2.30;;;8.10;98.50;;;;;;5066774;28;20052;-46
2022/05/03 04:15:45;;;;;;;2.30;1.73;;;8.20;98.50;;;;;;5063454;28;20061;-47
2022/05/03 04:18:11;;;;;;;3.03;1.90;;;8.20;98.10;;;;;;5081829;28;20043;-47
2022/05/03 04:20:37;;;;;;;4.72;2.63;;;8.20;98.30;;;;;;5090321;28;20282;-45
2022/05/03 04:23:03;;;;;;;4.38;2.55;;;8.10;97.80;;;;;;5089255;28;20104;-48
2022/05/03 04:25:29;;;;;;;3.53;2.15;;;8.10;98.30;;;;;;5090131;28;20442;-46
2022/05/03 04:27:54;;;;;;;3.45;1.70;;;8.10;98.10;;;;;;5088467;28;20024;-46
2022/05/03 04:30:20;;;;;;;3.35;2.17;;;8.20;97.50;;;;;;5089900;28;20393;-46
2022/05/03 04:32:45;;;;;;;3.20;2.30;;;8.30;98.10;;;;;;5089088;28;20028;-46
2022/05/03 04:35:11;;;;;;;5.20;2.00;;;8.20;97.60;;;;;;5089810;28;20067;-46
2022/05/03 04:37:37;;;;;;;2.53;1.95;;;8.20;98.10;;;;;;5089359;28;20587;-46
2022/05/03 04:40:02;;;;;;;2.78;1.90;;;8.20;97.80;;;;;;5089807;28;20035;-47
2022/05/03 04:42:28;;;;;;;3.40;2.17;;;8.20;98.00;;;;;;5088893;28;20388;-49
2022/05/03 04:44:53;;;;;;;2.83;2.17;;;8.20;98.90;;;;;;5080488;28;20021;-48
2022/05/03 04:47:20;;;;;;;3.08;2.42;;;8.20;98.60;;;;;;5076795;28;20098;-46
2022/05/03 04:49:47;;;;;;;2.80;2.15;;;8.20;98.50;;;;;;5089446;28;20028;-48
2022/05/03 04:52:13;;;;;;;3.42;2.42;;;8.20;98.40;;;;;;5088782;28;20236;-46
2022/05/03 04:54:39;;;;;;;4.00;2.47;;;8.20;99.20;;;;;;5089552;28;20024;-47
2022/05/03 04:57:09;;;;;;;3.45;2.40;;;8.20;98.70;;;;;;5088189;28;20076;-46
2022/05/03 04:59:37;;;;;;;2.97;2.17;;;8.20;99.10;;;;;;5089546;28;20186;-47
2022/05/03 05:02:03;;;;;;;2.65;1.80;;;8.20;99.30;;;;;;5088879;28;20485;-47
2022/05/03 05:04:29;;;;;;;3.20;2.30;;;8.10;99.90;;;;;;5089465;28;20055;-48
2022/05/03 05:06:54;;;;;;;4.88;2.40;;;8.10;99.50;;;;;;5060627;28;20477;-46
2022/05/03 05:09:20;;;;;;;4.45;2.92;;;8.10;99.90;;;;;;5057999;28;20044;-46
2022/05/03 05:11:46;;;;;;;3.03;2.55;;;8.00;99.20;;;;;;5057262;28;20028;-46
2022/05/03 05:14:11;;;;;;;6.70;2.40;;;8.00;99.80;;;;;;5059504;28;20024;-47
2022/05/03 05:16:37;;;;;;;6.88;2.40;;;8.10;99.80;;;;;;5059494;28;20039;-46
2022/05/03 05:19:02;;;;;;;6.93;2.35;;;8.10;99.60;;;;;;5059011;28;20429;-46
2022/05/03 05:21:28;;;;;;;4.18;2.50;;;8.10;99.90;;;;;;5060200;28;20016;-46
2022/05/03 05:23:53;;;;;;;2.88;2.40;;;8.20;99.90;;;;;;5057302;28;20017;-50
2022/05/03 05:26:19;;;;;;;4.32;2.75;;;8.20;99.80;;;;;;5059605;28;20030;-49
2022/05/03 05:28:44;;;;;;;3.80;2.30;;;8.20;99.90;;;;;;5062754;28;20374;-47
2022/05/03 05:31:10;;;;;;;4.05;2.90;;;8.30;99.90;;;;;;5060949;28;20021;-46
2022/05/03 05:33:36;;;;;;;4.05;2.63;;;8.20;99.90;;;;;;5057193;28;20107;-46
2022/05/03 05:36:01;;;;;;;4.60;2.63;;;8.30;99.90;;;;;;5062448;28;20024;-48
2022/05/03 05:38:27;;;;;;;7.38;2.80;;;8.30;99.70;;;;;;5059022;28;20026;-47
2022/05/03 05:40:52;;;;;;;3.63;2.70;;;8.40;99.90;;;;;;5063110;28;20013;-46
2022/05/03 05:43:18;;;;;;;4.65;3.13;;;8.40;99.90;;;;;;5060785;28;20474;-48
2022/05/03 05:45:44;;;;;;;6.35;2.50;;;8.40;99.90;;;;;;5059003;28;20070;-47
2022/05/03 05:48:12;;;;;;;4.90;2.55;;;8.50;99.90;;;;;;5058634;28;20090;-47
2022/05/03 05:50:38;;;;;;;9.63;3.10;;;8.50;99.90;;;;;;5057164;28;20045;-46
2022/05/03 05:55:48;;;;;;;5.57;3.03;;;8.50;99.90;;;;;;5058639;28;20176;-46
2022/05/03 05:58:13;;;;;;;4.85;2.65;;;8.60;99.90;;;;;;5061757;28;20442;-47
2022/05/03 06:00:39;;;;;;;5.78;2.63;;;8.70;99.90;;;;;;5069963;28;20027;-46
2022/05/03 06:03:05;;;;;;;6.75;3.13;;;8.80;99.90;;;;;;5066858;28;20040;-47
2022/05/03 06:05:31;;;;;;;3.72;2.75;;;8.90;99.90;;;;;;5061584;28;20020;-46
2022/05/03 06:07:57;;;;;;;5.35;2.95;;;9.10;99.90;;;;;;5062620;28;20028;-46
2022/05/03 06:10:23;;;;;;;4.95;2.15;;;9.30;99.60;;;;;;5072059;28;20048;-47
2022/05/03 06:12:49;;;;;;;5.45;2.50;;;9.40;99.60;;;;;;5061801;28;20032;-47
2022/05/03 06:15:15;;;;;;;7.15;3.03;;;9.50;98.10;;;;;;5062807;28;20029;-46
2022/05/03 06:17:41;;;;;;;3.53;2.55;;;9.50;98.40;;;;;;5061780;28;20028;-46
2022/05/03 06:20:10;;;;;;;3.97;2.42;;;9.60;98.40;;;;;;5061138;28;20378;-50
2022/05/03 06:22:36;;;;;;;4.72;2.50;;;9.90;98.30;;;;;;5069504;28;20519;-46
2022/05/03 06:25:03;;;;;;;2.92;2.58;;;10.00;96.50;;;;;;5062578;28;20036;-46
2022/05/03 06:27:28;;;;;;;5.00;2.72;;;10.20;97.00;;;;;;5069904;28;20012;-45
2022/05/03 06:29:54;;;;;;;4.82;3.10;;;10.30;96.00;;;;;;5065905;28;20031;-45
2022/05/03 06:32:19;;;;;;;3.55;2.67;;;10.40;95.30;;;;;;5062659;28;20470;-45
2022/05/03 06:34:45;;;;;;;4.35;2.10;;;10.50;95.50;;;;;;5067092;28;20066;-46
2022/05/03 06:37:16;;;;;;;2.80;2.28;;;10.70;94.70;;;;;;5090887;28;20024;-46
2022/05/03 06:39:42;;;;;;;6.75;4.35;;;10.90;94.50;;;;;;5086496;28;20044;-46
2022/05/03 06:42:08;;;;;;;4.05;2.65;;;11.00;93.80;;;;;;5089301;28;20056;-46
2022/05/03 06:44:33;;;;;;;4.18;2.78;;;11.00;94.50;;;;;;5070570;28;20025;-46
2022/05/03 06:46:59;;;;;;;5.95;2.42;;;11.00;93.90;;;;;;5070173;28;20375;-46
2022/05/03 06:49:24;;;;;;;2.58;1.77;;;11.00;93.10;;;;;;5066194;28;20033;-46
2022/05/03 06:51:51;;;;;;;4.82;1.73;;;10.90;91.20;;;;;;5068826;28;20021;-46
2022/05/03 06:54:16;;;;;;;2.63;1.55;;;10.80;90.90;;;;;;5066239;28;20013;-48
2022/05/03 06:56:42;;;;;;;2.67;1.90;;;10.80;91.60;;;;;;5061945;28;20024;-46
2022/05/03 06:59:07;;;;;;;2.42;1.80;;;10.80;91.60;;;;;;5061872;28;20031;-46
2022/05/03 07:01:33;;;;;;;2.38;1.40;;;11.00;90.20;;;;;;5069824;28;20095;-47
2022/05/03 07:03:59;;;;;;;7.70;1.90;;;11.20;89.30;;;;;;5084946;28;20157;-45
2022/05/03 07:06:24;;;;;;;3.92;1.75;;;11.50;90.50;;;;;;5093546;28;20036;-45
2022/05/03 07:08:50;;;;;;;3.47;1.73;;;11.60;86.50;;;;;;5092867;28;20024;-45
2022/05/03 07:11:16;;;;;;;2.03;1.80;;;11.80;85.90;;;;;;5093582;28;20035;-46
2022/05/03 07:13:41;;;;;;;1.60;1.48;;;11.80;85.00;;;;;;5092767;28;20081;-45
2022/05/03 07:16:07;;;;;;;3.63;1.80;;;11.90;86.80;;;;;;5080377;28;20417;-48
2022/05/03 07:24:01;;;;;;;3.47;1.55;;;12.00;80.70;;;;;;5093191;28;20046;-44
2022/05/03 07:26:27;;;;;;;3.20;1.55;;;11.90;81.40;;;;;;5093167;28;20461;-45
2022/05/03 07:28:52;;;;;;;4.97;1.83;;;11.90;83.20;;;;;;5093282;28;20685;-47
2022/05/03 07:31:19;;;;;;;6.95;2.08;;;11.90;83.60;;;;;;5093150;28;20577;-47
2022/05/03 07:33:45;;;;;;;8.43;2.45;;;11.90;84.30;;;;;;5092233;28;20067;-45
2022/05/03 07:36:11;;;;;;;6.95;3.13;;;11.90;85.00;;;;;;5091731;28;20040;-46
2022/05/03 07:38:37;;;;;;;5.15;2.85;;;12.00;85.90;;;;;;5068779;28;20485;-48
2022/05/03 07:41:03;;;;;;;4.85;2.60;;;12.10;86.50;;;;;;5058070;28;20120;-46
2022/05/03 07:43:32;;;;;;;5.03;2.92;;;12.30;85.60;;;;;;5068161;28;20115;-47
2022/05/03 07:45:57;;;;;;;2.83;2.55;;;12.30;83.50;;;;;;5059448;28;20304;-46
2022/05/03 07:48:23;;;;;;;4.07;2.90;;;12.30;84.80;;;;;;5059604;28;20377;-48
2022/05/03 07:50:48;;;;;;;4.50;3.13;;;12.50;85.20;;;;;;5062766;28;20017;-46
2022/05/03 07:53:14;;;;;;;3.33;2.28;;;12.70;82.80;;;;;;5066316;28;20470;-49
2022/05/03 07:55:40;;;;;;;3.80;2.67;;;12.90;83.60;;;;;;5072640;28;20013;-48
2022/05/03 07:58:06;;;;;;;5.63;3.08;;;13.10;84.60;;;;;;5063086;28;20027;-49
2022/05/03 08:00:31;;;;;;;8.70;3.70;;;13.30;83.40;;;;;;5061348;28;20485;-46
2022/05/03 08:02:57;;;;;;;4.53;3.72;;;13.50;84.10;;;;;;5062779;28;20017;-45
2022/05/03 08:05:23;;;;;;;7.95;3.33;;;13.70;81.90;;;;;;5060516;28;20013;-45
2022/05/03 08:07:50;;;;;;;5.50;3.15;;;13.70;79.50;;;;;;5066389;28;20037;-45
2022/05/03 08:10:15;;;;;;;5.70;2.88;;;14.10;81.90;;;;;;5064676;28;20032;-48
2022/05/03 08:12:41;;;;;;;2.95;2.63;;;14.30;81.50;;;;;;5059452;28;20081;-48
2022/05/03 08:15:07;;;;;;;4.55;3.15;;;14.50;78.90;;;;;;5061065;28;20020;-46
2022/05/03 08:17:32;;;;;;;6.07;2.88;;;14.90;78.20;;;;;;5060093;28;20039;-47
2022/05/03 08:20:02;;;;;;;4.45;2.85;;;15.30;78.20;;;;;;5060907;28;20024;-46
2022/05/03 08:22:27;;;;;;;5.20;2.85;;;16.30;76.60;;;;;;5059000;28;20029;-46
2022/05/03 08:24:53;;;;;;;5.38;3.00;;;17.60;73.90;;;;;;5064554;28;20021;-46
2022/05/03 08:27:18;;;;;;;3.97;2.75;;;19.00;67.60;;;;;;5062916;28;20028;-49
2022/05/03 08:29:44;;;;;;;5.63;2.70;;;20.60;62.80;;;;;;5062061;28;20393;-46
2022/05/03 08:32:10;;;;;;;3.40;2.60;;;21.70;56.90;;;;;;5064789;28;20032;-47
2022/05/03 08:34:36;;;;;;;4.72;2.60;;;21.90;54.70;;;;;;5059831;28;20037;-49
2022/05/03 08:42:30;;;;;;;3.75;2.40;;;24.90;49.70;;;;;;5059752;28;20032;-46
2022/05/03 08:45:00;;;;;;;8.20;2.72;;;25.60;48.80;;;;;;5065326;28;20013;-46
2022/05/03 08:47:28;;;;;;;2.88;2.63;;;26.10;47.00;;;;;;5064663;28;20048;-46
2022/05/03 08:50:07;;;;;;;98.53;11.57;;;26.20;47.20;;;;;;5061550;28;20545;-46
2022/05/03 08:52:47;;;;;;;18.17;4.15;;;26.60;43.90;;;;;;5060755;28;20017;-45
2022/05/03 08:55:14;;;;;;;3.45;2.30;;;26.90;44.10;;;;;;5067189;28;20063;-46
2022/05/03 08:57:42;;;;;;;2.67;1.90;;;27.20;44.10;;;;;;5071025;28;20114;-48
2022/05/03 09:00:09;;;;;;;3.65;2.25;;;27.90;43.80;;;;;;5074154;28;20066;-45
2022/05/03 09:02:40;;;;;;;2.35;2.15;;;26.40;42.80;;;;;;5050490;28;20466;-48
2022/05/03 09:05:06;;;;;;;5.95;2.25;;;26.70;44.00;;;;;;5050938;28;20101;-45
2022/05/03 09:07:34;;;;;;;6.32;3.00;;;27.40;43.60;;;;;;5051021;28;20024;-46
2022/05/03 09:10:21;;;;;;;4.88;3.67;;;28.20;43.90;;;;;;5050629;28;20163;-46
2022/05/03 09:12:49;;;;;;;3.95;2.63;;;28.30;42.30;;;;;;5050336;28;20040;-47
2022/05/03 09:15:15;;;;;;;5.00;3.55;;;28.30;41.90;;;;;;5050587;28;20555;-48
2022/05/03 09:17:43;;;;;;;9.13;2.78;;;28.20;42.20;;;;;;5059058;28;20168;-46
2022/05/03 09:25:50;;;;;;;5.05;3.00;;;29.40;41.60;;;;;;5091286;28;20023;-45
2022/05/03 09:28:16;;;;;;;3.13;2.92;;;29.60;43.30;;;;;;5090855;28;20055;-47
2022/05/03 09:30:46;;;;;;;4.05;2.58;;;29.50;40.80;;;;;;5090462;28;20074;-46
2022/05/03 09:33:16;;;;;;;2.78;2.58;;;29.40;41.40;;;;;;5090044;28;20047;-48
2022/05/03 09:35:41;;;;;;;3.20;2.90;;;29.10;41.20;;;;;;5090883;28;20460;-47
2022/05/03 09:38:07;;;;;;;4.82;3.05;;;30.00;40.60;;;;;;5090544;28;20112;-46
2022/05/03 09:40:40;;;;;;;4.75;2.60;;;30.20;41.80;;;;;;5090673;28;20105;-48
2022/05/03 09:43:06;;;;;;;3.38;3.08;;;30.60;41.00;;;;;;5090006;28;20035;-48
2022/05/03 09:45:31;;;;;;;5.72;3.03;;;31.10;39.80;;;;;;5079628;28;20016;-46
2022/05/03 09:47:59;;;;;;;4.65;4.22;;;31.00;39.20;;;;;;5082187;28;20062;-46
2022/05/03 09:50:27;;;;;;;4.93;3.70;;;30.80;38.10;;;;;;5090580;28;20093;-47
2022/05/03 09:52:53;;;;;;;4.93;3.20;;;30.30;39.70;;;;;;5089868;28;20462;-46
2022/05/03 09:55:31;;;;;;;3.70;2.72;;;30.30;39.90;;;;;;5090520;28;20111;-47
2022/05/03 09:58:00;;;;;;;4.03;2.70;;;29.90;39.70;;;;;;5090423;28;20481;-45
2022/05/03 10:00:26;;;;;;;5.15;2.53;;;30.40;40.60;;;;;;5090234;28;20047;-45
2022/05/03 10:02:52;;;;;;;3.90;2.92;;;30.30;41.20;;;;;;5089864;28;20449;-47
2022/05/03 10:05:21;;;;;;;3.45;2.90;;;28.90;39.90;;;;;;5088081;28;20028;-46
2022/05/03 10:07:49;;;;;;;4.20;2.90;;;29.10;40.50;;;;;;5071986;28;20032;-46
2022/05/03 10:10:16;;;;;;;3.08;2.53;;;29.40;41.70;;;;;;5087433;28;20477;-46
2022/05/03 10:12:46;;;;;;;3.72;2.25;;;29.20;41.40;;;;;;5089824;28;20606;-46
2022/05/03 10:15:12;;;;;;;2.50;2.10;;;29.80;41.20;;;;;;5090145;28;20211;-46
2022/05/03 10:20:42;;;;;;;2.47;2.28;;;30.20;40.90;;;;;;5090671;28;20042;-46
2022/05/03 10:23:21;;;;;;;6.28;2.20;;;30.80;41.00;;;;;;5089674;28;20030;-46
2022/05/03 10:25:46;;;;;;;4.85;2.72;;;31.20;39.40;;;;;;5090346;28;20016;-50
2022/05/03 10:28:12;;;;;;;3.75;2.80;;;30.80;39.70;;;;;;5090398;28;20556;-47
2022/05/03 10:30:38;;;;;;;4.40;2.30;;;30.30;39.10;;;;;;5090095;28;20110;-49
2022/05/03 10:33:19;;;;;;;5.20;2.53;;;30.40;42.20;;;;;;5089661;28;20365;-46
2022/05/03 10:35:46;;;;;;;4.80;2.38;;;30.60;39.50;;;;;;5081470;28;20036;-47
2022/05/03 10:38:12;;;;;;;3.13;2.55;;;30.40;40.30;;;;;;5075214;28;20402;-48
2022/05/03 10:40:47;;;;;;;3.70;2.88;;;30.40;39.40;;;;;;5090228;28;20020;-45
2022/05/03 10:43:24;;;;;;;5.30;2.78;;;30.10;39.80;;;;;;5089494;28;20112;-47
2022/05/03 10:45:57;;;;;;;7.38;2.40;;;29.70;40.20;;;;;;5093815;28;20030;-46
2022/05/03 10:48:28;;;;;;;4.25;2.72;;;29.60;40.90;;;;;;5093661;28;20088;-49
2022/05/03 10:50:58;;;;;;;8.80;3.17;;;30.00;41.60;;;;;;5092594;28;20016;-46
2022/05/03 10:53:25;;;;;;;3.72;2.45;;;30.60;39.90;;;;;;5091882;28;20487;-46
2022/05/03 10:56:16;;;;;;;3.70;2.35;;;30.30;40.30;;;;;;5078677;28;20109;-45
2022/05/03 10:59:13;;;;;;;4.05;2.38;;;30.80;41.40;;;;;;5060893;28;20097;-46
2022/05/03 11:01:57;;;;;;;4.22;2.10;;;31.00;39.90;;;;;;5060875;28;20044;-46
2022/05/03 11:04:25;;;;;;;3.67;2.78;;;30.50;41.10;;;;;;5065530;28;20021;-45
2022/05/03 11:06:51;;;;;;;3.72;2.70;;;31.20;40.30;;;;;;5063459;28;20025;-48
2022/05/03 11:09:25;;;;;;;3.30;2.33;;;30.10;40.00;;;;;;5062635;28;20406;-47
2022/05/03 11:11:53;;;;;;;3.22;2.90;;;29.40;40.50;;;;;;5068330;28;20481;-45
2022/05/03 11:14:22;;;;;;;3.83;2.58;;;27.50;41.20;;;;;;5063707;28;20052;-46
2022/05/03 11:17:05;;;;;;;3.22;2.60;;;27.00;43.90;;;;;;5061398;28;20028;-48
2022/05/03 11:19:33;;;;;;;5.20;2.95;;;27.50;44.40;;;;;;5065824;28;20093;-47
2022/05/03 11:21:59;;;;;;;4.47;2.78;;;28.50;40.20;;;;;;5063344;28;20041;-45
2022/05/03 11:24:30;;;;;;;4.45;2.55;;;27.90;41.60;;;;;;5066240;28;20044;-45
2022/05/03 11:27:05;;;;;;;5.05;2.97;;;28.20;45.40;;;;;;5056044;28;20486;-45
2022/05/03 11:29:55;;;;;;;5.35;2.75;;;28.80;41.80;;;;;;5063914;28;20024;-45
2022/05/03 11:32:37;;;;;;;4.53;2.90;;;29.10;43.40;;;;;;5052690;28;20025;-45
2022/05/03 11:35:23;;;;;;;3.25;2.15;;;29.30;40.20;;;;;;5062600;28;20037;-44
2022/05/03 11:37:55;;;;;;;4.43;2.35;;;29.90;40.90;;;;;;5057418;28;20029;-46
2022/05/03 11:40:22;;;;;;;2.25;2.05;;;30.60;39.60;;;;;;5054222;28;20012;-46
2022/05/03 11:42:49;;;;;;;3.50;2.38;;;31.40;38.60;;;;;;5059448;28;20025;-45
2022/05/03 11:45:15;;;;;;;2.92;2.35;;;30.80;40.10;;;;;;5057120;28;20090;-46
2022/05/03 11:47:47;;;;;;;4.68;2.17;;;30.10;40.60;;;;;;5054878;28;20439;-46
2022/05/03 11:55:58;;;;;;;4.13;2.30;;;28.30;41.70;;;;;;5060715;28;20255;-45
2022/05/03 11:56:00;;;;;;;5.40;2.40;;;28.70;42.00;;;;;;5065001;28;20524;-45
2022/05/03 11:58:31;;;;;;;5.07;2.42;;;27.40;41.30;;;;;;5068701;28;20016;-46
2022/05/03 12:00:57;;;;;;;6.10;2.95;;;26.20;44.60;;;;;;5064617;28;20029;-46
2022/05/03 12:03:22;;;;;;;5.65;2.38;;;25.10;46.90;;;;;;5058379;28;20054;-47
2022/05/03 12:05:57;;;;;;;6.15;2.60;;;24.60;45.60;;;;;;5066909;28;20087;-45
2022/05/03 12:08:23;;;;;;;4.75;2.83;;;24.40;45.60;;;;;;5064407;28;20913;-45
2022/05/03 12:10:49;;;;;;;3.72;2.40;;;24.50;48.10;;;;;;5060144;28;20040;-45
2022/05/03 12:13:19;;;;;;;4.63;2.60;;;24.40;46.20;;;;;;5060624;28;20021;-45
2022/05/03 12:15:50;;;;;;;5.40;3.40;;;24.70;47.50;;;;;;5065508;28;20028;-46
2022/05/03 12:18:28;;;;;;;5.55;2.83;;;24.50;44.30;;;;;;5068286;28;20033;-46
2022/05/03 12:21:08;;;;;;;3.95;3.40;;;24.80;47.50;;;;;;5066366;28;20436;-46
2022/05/03 12:23:34;;;;;;;2.65;2.10;;;24.60;45.70;;;;;;5055542;28;20056;-48
2022/05/03 12:26:14;;;;;;;3.40;2.55;;;24.10;48.30;;;;;;5059783;28;20012;-47
2022/05/03 12:28:43;;;;;;;3.03;2.28;;;23.70;48.40;;;;;;5061435;28;20039;-46
2022/05/03 12:31:12;;;;;;;4.60;2.38;;;23.00;48.10;;;;;;5059338;28;20100;-47
2022/05/03 12:33:52;;;;;;;3.28;2.78;;;23.20;49.50;;;;;;5066476;28;20074;-45
2022/05/03 12:36:39;;;;;;;3.38;2.67;;;23.70;49.70;;;;;;5061136;28;20044;-45
2022/05/03 12:39:25;;;;;;;2.47;2.20;;;23.90;47.00;;;;;;5061162;28;20453;-46
2022/05/03 12:41:55;;;;;;;3.00;2.10;;;23.50;46.90;;;;;;5066327;28;20025;-45
2022/05/03 12:44:22;;;;;;;3.13;2.47;;;23.10;48.10;;;;;;5059958;28;20039;-46
2022/05/03 12:46:50;;;;;;;4.38;3.35;;;23.00;47.60;;;;;;5058638;28;20036;-46
2022/05/03 12:49:16;;;;;;;3.63;2.08;;;22.60;48.20;;;;;;5060281;28;20021;-45
2022/05/03 12:51:45;;;;;;;2.17;1.90;;;23.00;50.60;;;;;;5065398;28;20255;-48
2022/05/03 12:54:11;;;;;;;79.65;63.30;;;23.20;48.20;;;;;;5062028;28;20078;-45
2022/05/03 12:59:22;;;;;;;4.25;2.50;;;23.40;47.50;;;;;;5060525;28;20354;-45
2022/05/03 13:01:54;;;;;;;3.25;2.35;;;23.30;49.70;;;;;;5060868;28;20025;-45
2022/05/03 13:04:20;;;;;;;7.65;2.67;;;23.50;49.90;;;;;;5059303;28;20031;-48
2022/05/03 13:06:46;;;;;;;4.38;2.30;;;23.40;49.40;;;;;;5062498;28;20029;-48
2022/05/03 13:09:12;;;;;;;6.85;2.75;;;23.20;49.00;;;;;;5059434;28;20036;-48
2022/05/03 13:11:38;;;;;;;8.15;2.63;;;22.70;49.80;;;;;;5062906;28;20024;-45
2022/05/03 13:14:05;;;;;;;4.35;3.05;;;22.20;49.70;;;;;;5061750;28;20024;-45
2022/05/03 13:16:31;;;;;;;2.95;1.63;;;21.40;49.60;;;;;;5061340;28;20504;-46
2022/05/03 13:18:56;;;;;;;4.70;2.10;;;21.30;52.40;;;;;;5058968;28;20073;-48
2022/05/03 13:21:23;;;;;;;3.47;2.47;;;21.20;51.90;;;;;;5058678;28;20033;-45
2022/05/03 13:23:48;;;;;;;5.63;2.38;;;21.00;53.30;;;;;;5062999;28;20020;-45
2022/05/03 13:26:14;;;;;;;3.60;2.50;;;20.90;54.20;;;;;;5060340;28;20065;-46
2022/05/03 13:28:40;;;;;;;5.80;2.25;;;20.80;54.00;;;;;;5061410;28;20044;-45
2022/05/03 13:31:05;;;;;;;2.85;2.40;;;20.60;54.50;;;;;;5064445;28;20071;-45
2022/05/03 13:33:31;;;;;;;5.43;2.60;;;20.60;55.00;;;;;;5057123;28;20029;-47
2022/05/03 13:41:29;;;;;;;3.92;2.60;;;21.30;50.50;;;;;;5078470;28;20044;-45
2022/05/03 13:43:54;;;;;;;11.63;3.22;;;21.10;53.50;;;;;;5067390;28;20378;-45
2022/05/03 13:46:19;;;;;;;4.15;2.35;;;21.10;54.90;;;;;;5060721;28;20017;-46
2022/05/03 13:48:46;;;;;;;5.65;3.15;;;20.70;52.20;;;;;;5063157;28;20024;-45